Time;durP1;ratioP1;P1;durP2;ratioP2;P2;SDS_P1;SDS_P2;PMS_P1;PMS_P2;Temp;Humidity;BMP_temperature;BMP_pressure;BME280_temperature;BME280_humidity;BME280_pressure;Samples;Min_cycle;Max_cycle;Signal;HPM_P1;HPM_P2
2022/10/29 00:01:12;;;;;;;17.95;5.80;;;14.50;99.90;;;;;;5052760;28;20041;-84
2022/10/29 00:03:37;;;;;;;16.10;5.32;;;14.50;99.90;;;;;;5037001;28;20036;-84
2022/10/29 00:06:05;;;;;;;16.20;6.10;;;14.60;99.90;;;;;;5052857;28;20128;-84
2022/10/29 00:08:33;;;;;;;12.27;3.40;;;14.60;99.90;;;;;;5053499;28;20167;-84
2022/10/29 00:11:06;;;;;;;9.57;2.60;;;14.50;99.90;;;;;;5035952;28;20041;-83
2022/10/29 00:13:33;;;;;;;17.42;6.43;;;14.50;99.90;;;;;;5052818;28;20033;-84
2022/10/29 00:15:58;;;;;;;21.85;6.30;;;14.50;99.90;;;;;;5036758;28;20072;-84
2022/10/29 00:18:24;;;;;;;16.00;4.38;;;14.50;99.90;;;;;;5035462;28;20064;-84
2022/10/29 00:20:58;;;;;;;16.48;4.40;;;14.50;99.90;;;;;;5036516;28;20037;-84
2022/10/29 00:23:23;;;;;;;14.23;3.90;;;14.50;99.90;;;;;;5052184;28;20480;-84
2022/10/29 00:25:49;;;;;;;16.95;6.90;;;14.50;99.90;;;;;;5052864;28;20469;-84
2022/10/29 00:28:14;;;;;;;20.13;7.47;;;14.50;99.90;;;;;;5053206;28;20047;-84
2022/10/29 00:30:40;;;;;;;13.52;4.38;;;14.60;99.90;;;;;;5035443;28;20040;-84
2022/10/29 00:33:05;;;;;;;20.02;7.93;;;14.60;99.90;;;;;;5052772;28;20049;-84
2022/10/29 00:35:31;;;;;;;14.38;4.88;;;14.60;99.90;;;;;;5052693;28;20033;-84
2022/10/29 00:37:56;;;;;;;15.80;5.13;;;14.60;99.90;;;;;;5053106;28;20115;-84
2022/10/29 00:40:22;;;;;;;15.50;7.45;;;14.50;99.90;;;;;;5053018;28;20037;-84
2022/10/29 00:42:47;;;;;;;19.52;7.18;;;14.50;99.90;;;;;;5052224;28;20033;-83
2022/10/29 00:45:20;;;;;;;15.70;4.53;;;14.60;99.90;;;;;;5053217;28;20044;-84
2022/10/29 00:47:50;;;;;;;17.30;4.63;;;14.50;99.90;;;;;;5036197;28;20452;-84
2022/10/29 00:50:18;;;;;;;12.20;4.70;;;14.40;99.90;;;;;;5051779;28;20071;-84
2022/10/29 00:52:46;;;;;;;14.40;5.15;;;14.30;99.90;;;;;;5035147;28;20624;-83
2022/10/29 00:55:14;;;;;;;17.02;5.15;;;14.30;99.90;;;;;;5052324;28;20044;-83
2022/10/29 00:57:47;;;;;;;17.67;8.55;;;14.30;99.90;;;;;;5052108;28;20123;-84
2022/10/29 01:00:15;;;;;;;;;;;14.40;99.90;;;;;;5036263;28;20033;-84
2022/10/29 01:02:50;;;;;;;18.20;5.65;;;14.30;99.90;;;;;;5035981;28;19999;-84
2022/10/29 01:05:20;;;;;;;15.07;4.60;;;14.30;99.90;;;;;;5036064;28;20137;-84
2022/10/29 01:07:46;;;;;;;14.38;4.85;;;14.20;99.90;;;;;;5051948;28;20460;-84
2022/10/29 01:10:13;;;;;;;18.88;8.10;;;14.20;99.90;;;;;;5051924;28;20068;-84
2022/10/29 01:13:08;;;;;;;15.88;7.90;;;14.20;99.90;;;;;;5035289;28;20644;-84
2022/10/29 01:16:06;;;;;;;17.27;8.52;;;14.30;99.90;;;;;;5035194;28;20037;-84
2022/10/29 01:18:44;;;;;;;15.45;8.23;;;14.30;99.90;;;;;;5052013;28;20033;-84
2022/10/29 01:21:53;;;;;;;15.75;5.18;;;14.30;99.90;;;;;;5034479;28;20037;-84
2022/10/29 01:24:48;;;;;;;12.63;4.70;;;14.20;99.90;;;;;;5037519;28;20111;-84
2022/10/29 01:27:37;;;;;;;15.90;5.80;;;14.10;99.90;;;;;;4977792;28;20128;-84
2022/10/29 01:30:09;;;;;;;15.85;5.10;;;14.10;99.90;;;;;;4975586;28;20547;-84
2022/10/29 01:32:46;;;;;;;19.75;8.13;;;14.10;99.90;;;;;;4966507;28;20078;-84
2022/10/29 01:35:39;;;;;;;17.13;8.52;;;14.20;99.90;;;;;;4959121;28;20046;-84
2022/10/29 01:38:33;;;;;;;12.52;4.80;;;14.30;99.90;;;;;;4974573;28;20085;-84
2022/10/29 01:41:37;;;;;;;19.38;9.23;;;14.20;99.90;;;;;;4974919;28;20548;-84
2022/10/29 01:44:03;;;;;;;14.77;5.68;;;14.20;99.90;;;;;;4974630;28;20050;-84
2022/10/29 01:46:52;;;;;;;12.10;4.68;;;14.10;99.90;;;;;;4971549;28;20097;-84
2022/10/29 01:49:24;;;;;;;18.98;8.32;;;14.10;99.90;;;;;;4940274;28;20551;-84
2022/10/29 01:51:51;;;;;;;18.20;8.93;;;14.10;99.90;;;;;;4970837;28;20050;-84
2022/10/29 01:54:16;;;;;;;13.25;4.40;;;14.20;99.90;;;;;;4974727;28;20104;-84
2022/10/29 01:56:42;;;;;;;11.45;5.38;;;14.10;99.90;;;;;;4974505;28;20535;-84
2022/10/29 01:59:12;;;;;;;19.20;10.02;;;14.10;99.90;;;;;;4957389;28;20488;-84
2022/10/29 02:02:12;;;;;;;17.80;8.60;;;14.10;99.90;;;;;;4958510;28;20132;-84
2022/10/29 02:05:05;;;;;;;14.82;6.75;;;14.10;99.90;;;;;;5042141;28;20124;-84
2022/10/29 02:07:44;;;;;;;9.35;3.83;;;14.10;99.90;;;;;;5050312;28;20443;-84
2022/10/29 02:10:29;;;;;;;7.93;3.17;;;13.90;99.90;;;;;;5034230;28;20132;-84
2022/10/29 02:12:56;;;;;;;12.18;3.70;;;13.80;99.90;;;;;;5033337;28;20123;-84
2022/10/29 02:15:36;;;;;;;15.10;5.05;;;13.80;99.90;;;;;;5050293;28;20044;-84
2022/10/29 02:18:07;;;;;;;9.57;3.33;;;13.80;99.90;;;;;;5050484;28;20125;-84
2022/10/29 02:20:33;;;;;;;14.15;6.45;;;13.80;99.90;;;;;;5049090;28;20056;-84
2022/10/29 02:22:59;;;;;;;16.25;7.63;;;13.80;99.90;;;;;;5050274;28;20041;-84
2022/10/29 02:25:25;;;;;;;12.05;5.78;;;13.80;99.90;;;;;;5033900;28;20509;-84
2022/10/29 02:27:51;;;;;;;15.00;4.85;;;13.80;99.90;;;;;;5032994;28;20167;-84
2022/10/29 02:30:17;;;;;;;14.27;7.03;;;13.70;99.90;;;;;;5034505;28;20092;-84
2022/10/29 02:32:43;;;;;;;9.00;3.67;;;13.80;99.90;;;;;;5050882;28;20145;-84
2022/10/29 02:35:09;;;;;;;9.45;3.47;;;13.70;99.90;;;;;;5050367;28;20108;-84
2022/10/29 02:37:34;;;;;;;12.32;5.25;;;13.60;99.90;;;;;;5050641;28;20738;-84
2022/10/29 02:40:00;;;;;;;10.98;5.45;;;13.60;99.90;;;;;;5033258;28;20116;-84
2022/10/29 02:42:25;;;;;;;11.95;5.95;;;13.60;99.90;;;;;;5050791;28;20037;-84
2022/10/29 02:44:51;;;;;;;11.13;4.00;;;13.60;99.90;;;;;;5050803;28;20029;-84
2022/10/29 02:47:17;;;;;;;14.27;8.70;;;13.60;99.90;;;;;;5032914;28;20750;-84
2022/10/29 02:49:42;;;;;;;10.85;4.75;;;13.60;99.90;;;;;;5034249;28;20468;-84
2022/10/29 02:52:08;;;;;;;11.38;4.50;;;13.50;99.90;;;;;;5032456;28;20021;-84
2022/10/29 02:54:33;;;;;;;14.40;7.72;;;13.50;99.90;;;;;;5049865;28;20445;-84
2022/10/29 02:56:59;;;;;;;14.10;5.05;;;13.50;99.90;;;;;;5050539;28;20668;-84
2022/10/29 02:59:24;;;;;;;11.65;4.60;;;13.50;99.90;;;;;;5032542;28;20041;-84
2022/10/29 03:01:50;;;;;;;11.15;5.90;;;13.40;99.90;;;;;;5050097;28;20041;-84
2022/10/29 03:04:15;;;;;;;11.90;4.97;;;13.40;99.90;;;;;;5032907;28;20444;-84
2022/10/29 03:06:41;;;;;;;13.13;6.00;;;13.40;99.90;;;;;;5033417;28;20474;-84
2022/10/29 03:09:06;;;;;;;24.05;11.70;;;13.30;99.90;;;;;;5050534;28;20052;-84
2022/10/29 03:11:32;;;;;;;13.50;7.20;;;13.40;99.90;;;;;;5049039;28;20048;-84
2022/10/29 03:13:58;;;;;;;21.20;3.50;;;13.40;99.90;;;;;;5049349;28;20490;-84
2022/10/29 03:16:23;;;;;;;17.42;3.63;;;13.30;99.90;;;;;;5050020;28;20741;-84
2022/10/29 03:18:49;;;;;;;13.35;3.70;;;13.10;99.90;;;;;;5048811;28;20102;-84
2022/10/29 03:21:14;;;;;;;18.38;3.53;;;13.10;99.90;;;;;;5049860;28;20116;-84
2022/10/29 03:23:40;;;;;;;20.90;5.00;;;13.00;99.90;;;;;;5048504;28;20040;-84
2022/10/29 03:26:05;;;;;;;9.57;3.92;;;13.00;99.90;;;;;;5050143;28;20049;-84
2022/10/29 03:28:31;;;;;;;8.98;4.20;;;12.90;99.90;;;;;;5033341;28;20048;-84
2022/10/29 03:30:57;;;;;;;13.82;8.60;;;12.90;99.90;;;;;;5048549;28;20044;-84
2022/10/29 03:33:25;;;;;;;11.02;4.40;;;13.00;99.90;;;;;;5047934;28;20406;-84
2022/10/29 03:36:02;;;;;;;9.15;4.25;;;13.00;99.90;;;;;;5048723;28;20045;-84
2022/10/29 03:38:28;;;;;;;15.32;4.38;;;13.00;99.90;;;;;;5029823;28;20553;-84
2022/10/29 03:40:54;;;;;;;19.60;8.02;;;13.00;99.90;;;;;;5019678;28;20112;-84
2022/10/29 03:43:20;;;;;;;33.40;9.23;;;13.10;99.90;;;;;;5049157;28;20052;-84
2022/10/29 03:45:49;;;;;;;16.27;5.35;;;13.20;99.90;;;;;;5033520;28;20055;-84
2022/10/29 03:48:15;;;;;;;14.63;4.97;;;13.20;99.90;;;;;;5031741;28;20045;-84
2022/10/29 03:50:41;;;;;;;15.30;4.78;;;13.20;99.90;;;;;;5050141;28;20033;-84
2022/10/29 03:53:07;;;;;;;9.82;4.30;;;13.10;99.90;;;;;;5031185;28;20593;-84
2022/10/29 03:55:32;;;;;;;9.93;4.68;;;13.10;99.90;;;;;;5050069;28;20072;-84
2022/10/29 03:57:58;;;;;;;10.52;4.03;;;13.10;99.90;;;;;;5032406;28;20118;-84
2022/10/29 04:00:23;;;;;;;26.00;10.00;;;13.10;99.90;;;;;;5032290;28;20136;-84
2022/10/29 04:02:49;;;;;;;17.42;8.88;;;13.20;99.90;;;;;;5049186;28;20128;-84
2022/10/29 04:05:15;;;;;;;13.40;5.75;;;13.30;99.90;;;;;;5049005;28;20041;-84
2022/10/29 04:07:40;;;;;;;11.38;5.40;;;13.30;99.90;;;;;;5033215;28;20052;-84
2022/10/29 04:10:06;;;;;;;11.65;5.68;;;13.20;99.90;;;;;;5048977;28;20051;-84
2022/10/29 04:12:31;;;;;;;16.05;10.55;;;13.20;99.90;;;;;;5048667;28;20059;-84
2022/10/29 04:14:57;;;;;;;14.07;9.95;;;13.30;99.90;;;;;;5048959;28;20425;-84
2022/10/29 04:17:22;;;;;;;13.88;6.10;;;13.40;99.90;;;;;;5032105;28;20098;-84
2022/10/29 04:19:48;;;;;;;14.48;5.68;;;13.30;99.90;;;;;;5048917;28;20405;-84
2022/10/29 04:22:14;;;;;;;17.40;10.05;;;13.20;99.90;;;;;;5047564;28;20464;-84
2022/10/29 04:24:39;;;;;;;13.48;5.65;;;13.30;99.90;;;;;;5048795;28;20161;-84
2022/10/29 04:27:05;;;;;;;14.30;6.28;;;13.30;99.90;;;;;;5032046;28;20044;-84
2022/10/29 04:29:30;;;;;;;22.38;15.10;;;13.30;99.90;;;;;;5031764;28;20049;-84
2022/10/29 04:31:56;;;;;;;20.58;12.00;;;13.30;99.90;;;;;;5032648;28;20044;-84
2022/10/29 04:34:21;;;;;;;19.55;7.40;;;13.40;99.90;;;;;;5031207;28;20041;-84
2022/10/29 04:36:47;;;;;;;16.70;7.60;;;13.30;99.90;;;;;;5049390;28;20051;-84
2022/10/29 04:39:12;;;;;;;20.40;12.63;;;13.30;99.90;;;;;;5049343;28;20048;-84
2022/10/29 04:41:38;;;;;;;28.40;13.82;;;13.30;99.90;;;;;;5031593;28;20513;-84
2022/10/29 04:44:03;;;;;;;19.10;8.02;;;13.30;99.90;;;;;;5034256;28;20126;-84
2022/10/29 04:46:29;;;;;;;42.70;7.43;;;13.30;99.90;;;;;;5035981;28;20095;-84
2022/10/29 04:48:55;;;;;;;34.15;14.30;;;13.30;99.90;;;;;;5051493;28;20513;-84
2022/10/29 04:51:24;;;;;;;59.53;9.13;;;13.30;99.90;;;;;;5053245;28;20117;-84
2022/10/29 04:53:50;;;;;;;17.60;6.72;;;13.30;99.90;;;;;;5034657;28;20043;-84
2022/10/29 04:56:16;;;;;;;25.52;8.07;;;13.20;99.90;;;;;;5052839;28;20041;-84
2022/10/29 04:58:42;;;;;;;19.85;11.30;;;13.20;99.90;;;;;;5035290;28;20148;-84
2022/10/29 05:01:07;;;;;;;13.27;6.00;;;13.20;99.90;;;;;;5035693;28;20514;-83
2022/10/29 05:03:33;;;;;;;16.58;6.40;;;13.20;99.90;;;;;;5052686;28;20036;-83
2022/10/29 05:06:02;;;;;;;22.10;6.80;;;13.10;99.90;;;;;;5035085;28;20032;-83
2022/10/29 05:08:28;;;;;;;29.55;13.60;;;13.10;99.90;;;;;;5035509;28;20498;-84
2022/10/29 05:10:54;;;;;;;82.45;17.73;;;13.20;99.90;;;;;;5035553;28;20040;-84
2022/10/29 05:13:19;;;;;;;22.17;7.43;;;13.20;99.90;;;;;;5051173;28;20417;-84
2022/10/29 05:15:50;;;;;;;34.25;7.65;;;13.20;99.90;;;;;;5052552;28;20037;-84
2022/10/29 05:18:15;;;;;;;23.15;6.88;;;13.10;99.90;;;;;;5051815;28;20033;-84
2022/10/29 05:20:41;;;;;;;21.83;6.90;;;13.10;99.90;;;;;;5035487;28;20063;-84
2022/10/29 05:23:08;;;;;;;29.00;7.43;;;13.10;99.90;;;;;;5050658;28;20410;-83
2022/10/29 05:25:35;;;;;;;61.08;12.73;;;13.10;99.90;;;;;;5052108;28;20051;-84
2022/10/29 05:28:08;;;;;;;28.73;13.80;;;13.10;99.90;;;;;;5051014;28;20169;-84
2022/10/29 05:30:34;;;;;;;60.40;8.88;;;13.20;99.90;;;;;;5035503;28;20515;-84
2022/10/29 05:33:00;;;;;;;18.55;7.15;;;13.10;99.90;;;;;;5034839;28;20490;-83
2022/10/29 05:35:26;;;;;;;27.30;6.78;;;13.10;99.90;;;;;;5034503;28;20033;-84
2022/10/29 05:37:55;;;;;;;64.40;18.45;;;13.00;99.90;;;;;;5051767;28;20044;-84
2022/10/29 05:40:22;;;;;;;21.98;14.98;;;13.10;99.90;;;;;;5050467;28;20037;-84
2022/10/29 05:42:48;;;;;;;13.55;6.95;;;13.20;99.90;;;;;;5034526;28;20036;-84
2022/10/29 05:45:14;;;;;;;15.57;7.28;;;13.10;99.90;;;;;;5051279;28;20043;-84
2022/10/29 05:47:40;;;;;;;23.40;14.45;;;13.10;99.90;;;;;;5051121;28;20041;-84
2022/10/29 05:50:06;;;;;;;12.98;7.95;;;13.10;99.90;;;;;;5051700;28;20535;-84
2022/10/29 05:52:32;;;;;;;13.90;7.82;;;13.20;99.90;;;;;;5049753;28;20037;-84
2022/10/29 05:54:57;;;;;;;12.93;8.00;;;13.10;99.90;;;;;;5033886;28;20052;-84
2022/10/29 05:57:23;;;;;;;16.33;14.32;;;13.10;99.90;;;;;;5050369;28;20045;-84
2022/10/29 05:59:48;;;;;;;12.70;7.85;;;13.20;99.90;;;;;;5051338;28;20128;-84
2022/10/29 06:02:14;;;;;;;12.70;7.65;;;13.20;99.90;;;;;;5050885;28;20107;-84
2022/10/29 06:04:39;;;;;;;11.75;7.20;;;13.10;99.90;;;;;;5033710;28;20052;-84
2022/10/29 06:07:05;;;;;;;16.40;13.00;;;13.10;99.90;;;;;;5051425;28;20037;-84
2022/10/29 06:09:30;;;;;;;15.48;13.65;;;13.20;99.90;;;;;;5050152;28;20090;-84
2022/10/29 06:11:56;;;;;;;12.95;7.60;;;13.20;99.90;;;;;;5051481;28;20041;-84
2022/10/29 06:14:22;;;;;;;14.88;7.65;;;13.20;99.90;;;;;;5050235;28;20098;-84
2022/10/29 06:16:48;;;;;;;17.27;10.55;;;13.20;99.90;;;;;;5034476;28;20094;-84
2022/10/29 06:19:13;;;;;;;16.77;10.27;;;13.10;99.90;;;;;;5034259;28;20120;-84
2022/10/29 06:21:39;;;;;;;21.23;17.52;;;13.20;99.90;;;;;;5049409;28;20485;-84
2022/10/29 06:24:05;;;;;;;21.90;16.85;;;13.20;99.90;;;;;;5056131;28;20052;-84
2022/10/29 06:26:30;;;;;;;17.65;9.85;;;13.20;99.90;;;;;;5056868;28;20037;-84
2022/10/29 06:28:56;;;;;;;25.40;19.92;;;13.20;99.90;;;;;;5045268;28;20238;-84
2022/10/29 06:31:22;;;;;;;23.33;18.33;;;13.20;99.90;;;;;;5063006;28;20045;-84
2022/10/29 06:33:47;;;;;;;18.88;9.98;;;13.30;99.90;;;;;;5050392;28;20040;-84
2022/10/29 06:36:13;;;;;;;18.38;10.13;;;13.30;99.90;;;;;;5050767;28;20495;-84
2022/10/29 06:38:38;;;;;;;16.42;8.95;;;13.30;99.90;;;;;;5033529;28;20194;-84
2022/10/29 06:41:04;;;;;;;16.55;9.48;;;13.20;99.90;;;;;;5050449;28;20506;-84
2022/10/29 06:43:30;;;;;;;18.70;15.45;;;13.20;99.90;;;;;;5049459;28;20043;-84
2022/10/29 06:45:55;;;;;;;15.40;9.35;;;13.20;99.90;;;;;;5034115;28;20041;-84
2022/10/29 06:48:21;;;;;;;16.60;8.43;;;13.20;99.90;;;;;;5050637;28;20045;-84
2022/10/29 06:50:46;;;;;;;15.75;9.85;;;13.20;99.90;;;;;;5041665;28;20049;-84
2022/10/29 06:53:13;;;;;;;25.63;16.55;;;13.20;99.90;;;;;;5030079;28;20075;-84
2022/10/29 06:55:39;;;;;;;16.20;8.63;;;13.30;99.90;;;;;;5037862;28;20036;-84
2022/10/29 06:58:13;;;;;;;15.25;8.45;;;13.20;99.90;;;;;;5049985;28;20072;-84
2022/10/29 07:00:40;;;;;;;17.45;8.93;;;13.20;99.90;;;;;;5049431;28;20441;-84
2022/10/29 07:03:06;;;;;;;17.83;15.70;;;13.20;99.90;;;;;;5032659;28;20037;-84
2022/10/29 07:05:33;;;;;;;14.07;8.13;;;13.20;99.90;;;;;;5033643;28;20044;-84
2022/10/29 07:08:00;;;;;;;14.98;8.05;;;13.20;99.90;;;;;;5049062;28;20048;-84
2022/10/29 07:10:27;;;;;;;15.80;9.25;;;13.20;99.90;;;;;;5033797;28;20044;-84
2022/10/29 07:12:53;;;;;;;18.00;14.88;;;13.20;99.90;;;;;;5048748;28;20041;-84
2022/10/29 07:15:19;;;;;;;18.25;14.40;;;13.30;99.90;;;;;;5050260;28;20037;-84
2022/10/29 07:18:02;;;;;;;15.23;7.95;;;13.30;99.90;;;;;;5033635;28;20476;-84
2022/10/29 07:20:30;;;;;;;18.80;8.68;;;13.30;99.90;;;;;;5049110;28;20469;-84
2022/10/29 07:22:56;;;;;;;20.40;15.77;;;13.30;99.90;;;;;;5033048;28;20037;-84
2022/10/29 07:25:22;;;;;;;19.80;15.15;;;13.30;99.90;;;;;;5049768;28;20045;-84
2022/10/29 07:27:48;;;;;;;16.55;8.73;;;13.40;99.90;;;;;;5032983;28;20033;-84
2022/10/29 07:30:14;;;;;;;15.98;8.15;;;13.40;99.90;;;;;;5049992;28;20513;-84
2022/10/29 07:32:40;;;;;;;15.00;8.05;;;13.30;99.90;;;;;;5048243;28;20075;-84
2022/10/29 07:35:05;;;;;;;19.77;13.50;;;13.30;99.90;;;;;;5049987;28;20064;-84
2022/10/29 07:37:31;;;;;;;15.70;8.80;;;13.40;99.90;;;;;;5049343;28;20115;-84
2022/10/29 07:39:57;;;;;;;23.08;15.75;;;13.40;99.90;;;;;;5033006;28;20037;-84
2022/10/29 07:42:23;;;;;;;22.65;16.15;;;13.50;99.90;;;;;;5048857;28;20082;-84
2022/10/29 07:44:48;;;;;;;16.92;8.07;;;13.50;99.90;;;;;;5032131;28;20072;-84
2022/10/29 07:47:14;;;;;;;19.38;8.95;;;13.50;99.90;;;;;;5051410;28;20080;-84
2022/10/29 07:49:39;;;;;;;17.23;9.75;;;13.50;99.90;;;;;;5064216;28;20036;-84
2022/10/29 07:52:05;;;;;;;23.15;16.95;;;13.50;99.90;;;;;;5031934;28;20056;-84
2022/10/29 07:54:31;;;;;;;19.88;9.30;;;13.60;99.90;;;;;;5048648;28;20051;-84
2022/10/29 07:56:56;;;;;;;24.70;10.88;;;13.70;99.90;;;;;;5049430;28;20160;-84
2022/10/29 07:59:22;;;;;;;24.98;18.13;;;13.70;99.90;;;;;;5032701;28;20051;-84
2022/10/29 08:01:47;;;;;;;20.63;15.75;;;13.80;99.90;;;;;;5031875;28;20128;-84
2022/10/29 08:04:13;;;;;;;21.17;10.18;;;13.90;99.90;;;;;;5059524;28;20437;-84
2022/10/29 08:06:39;;;;;;;22.50;15.82;;;13.90;99.90;;;;;;5055719;28;20090;-84
2022/10/29 08:09:05;;;;;;;22.20;15.80;;;13.90;99.90;;;;;;5037389;28;20037;-84
2022/10/29 08:11:31;;;;;;;24.92;17.13;;;14.00;99.90;;;;;;5033064;28;20045;-84
2022/10/29 08:13:58;;;;;;;28.58;18.25;;;14.10;99.90;;;;;;5047426;28;20091;-85
2022/10/29 08:16:24;;;;;;;23.30;15.80;;;14.20;99.90;;;;;;5049744;28;20041;-84
2022/10/29 08:18:49;;;;;;;17.50;9.30;;;14.20;99.90;;;;;;5033239;28;20078;-84
2022/10/29 08:21:16;;;;;;;16.63;8.55;;;14.20;99.90;;;;;;5036706;28;20095;-84
2022/10/29 08:23:42;;;;;;;20.27;10.93;;;14.20;99.90;;;;;;5053375;28;20080;-84
2022/10/29 08:26:08;;;;;;;26.00;17.90;;;14.20;99.90;;;;;;5033677;28;20067;-84
2022/10/29 08:28:33;;;;;;;25.85;18.83;;;14.30;99.90;;;;;;5035099;28;20048;-84
2022/10/29 08:30:59;;;;;;;20.65;11.82;;;14.40;99.90;;;;;;5034681;28;20098;-84
2022/10/29 08:33:24;;;;;;;31.75;21.35;;;14.40;99.90;;;;;;5051489;28;20041;-84
2022/10/29 08:35:51;;;;;;;29.85;21.23;;;14.40;99.90;;;;;;5052245;28;20120;-84
2022/10/29 08:38:17;;;;;;;34.00;22.13;;;14.50;99.90;;;;;;5051709;28;20048;-84
2022/10/29 08:41:23;;;;;;;29.63;21.17;;;14.60;99.90;;;;;;5035814;28;20041;-84
2022/10/29 08:44:02;;;;;;;29.67;21.38;;;14.70;99.90;;;;;;4993779;28;20085;-85
2022/10/29 08:46:46;;;;;;;27.73;13.10;;;14.70;99.90;;;;;;4978673;28;20519;-84
2022/10/29 08:49:23;;;;;;;24.90;13.88;;;14.70;99.90;;;;;;4976911;28;20165;-85
2022/10/29 08:52:24;;;;;;;26.63;14.77;;;14.80;99.90;;;;;;4995061;28;20048;-84
2022/10/29 08:55:06;;;;;;;32.83;22.92;;;14.80;99.90;;;;;;4964456;28;20065;-84
2022/10/29 08:57:36;;;;;;;34.63;23.98;;;15.00;99.90;;;;;;4993817;28;20046;-84
2022/10/29 09:00:07;;;;;;;27.52;12.73;;;15.10;99.90;;;;;;4978188;28;20403;-84
2022/10/29 09:02:32;;;;;;;30.35;21.90;;;15.10;99.90;;;;;;4993697;28;20053;-85
2022/10/29 09:05:00;;;;;;;29.98;23.30;;;15.20;99.90;;;;;;4978541;28;20038;-84
2022/10/29 09:07:47;;;;;;;30.67;22.02;;;15.20;99.90;;;;;;4994401;28;20050;-84
2022/10/29 09:10:23;;;;;;;32.85;14.77;;;15.30;99.90;;;;;;4994700;28;20099;-84
2022/10/29 09:13:04;;;;;;;31.00;21.80;;;15.30;99.90;;;;;;4976810;28;20113;-84
2022/10/29 09:15:51;;;;;;;26.08;21.25;;;15.40;99.90;;;;;;4974547;28;20538;-84
2022/10/29 09:18:41;;;;;;;22.33;13.77;;;15.50;99.90;;;;;;4998481;28;20045;-85
2022/10/29 09:21:14;;;;;;;27.90;19.73;;;15.50;99.90;;;;;;5028884;28;20132;-84
2022/10/29 09:24:01;;;;;;;30.08;21.17;;;15.60;99.90;;;;;;5038403;28;20476;-84
2022/10/29 09:26:42;;;;;;;26.42;19.83;;;15.70;99.90;;;;;;5031287;28;20045;-84
2022/10/29 09:29:23;;;;;;;26.35;19.05;;;15.80;99.90;;;;;;5031586;28;20033;-85
2022/10/29 09:32:11;;;;;;;25.38;18.88;;;15.90;99.90;;;;;;5033701;28;20036;-85
2022/10/29 09:34:44;;;;;;;28.27;18.83;;;16.00;99.90;;;;;;5033856;28;20049;-84
2022/10/29 09:37:16;;;;;;;24.73;19.20;;;16.10;99.90;;;;;;5050550;28;20037;-84
2022/10/29 09:39:44;;;;;;;26.33;19.27;;;16.20;99.90;;;;;;5051032;28;20037;-85
2022/10/29 09:42:41;;;;;;;20.77;12.82;;;16.30;99.90;;;;;;5031629;28;20025;-85
2022/10/29 09:45:12;;;;;;;26.85;18.15;;;16.30;99.90;;;;;;4974254;28;20137;-85
2022/10/29 09:47:46;;;;;;;26.98;18.20;;;16.40;99.90;;;;;;4983481;28;20506;-84
2022/10/29 09:50:48;;;;;;;25.23;18.70;;;16.50;99.90;;;;;;4977328;28;20104;-84
2022/10/29 09:53:14;;;;;;;26.43;12.60;;;16.60;99.90;;;;;;4981025;28;20049;-85
2022/10/29 09:55:42;;;;;;;24.15;18.08;;;16.60;99.90;;;;;;4981920;28;20042;-84
2022/10/29 09:58:21;;;;;;;25.20;18.13;;;16.70;99.90;;;;;;4984388;28;20490;-84
2022/10/29 10:00:47;;;;;;;25.92;18.38;;;16.90;99.90;;;;;;4988132;28;20038;-85
2022/10/29 10:03:44;;;;;;;26.27;18.48;;;16.90;99.90;;;;;;4976952;28;20058;-85
2022/10/29 10:06:12;;;;;;;25.88;18.70;;;17.00;99.90;;;;;;4971459;28;20478;-84
2022/10/29 10:09:05;;;;;;;28.40;18.83;;;17.10;99.90;;;;;;4976727;28;20065;-85
2022/10/29 10:11:37;;;;;;;23.13;12.43;;;17.10;99.90;;;;;;4977748;28;20080;-85
2022/10/29 10:14:15;;;;;;;28.80;18.02;;;17.10;99.90;;;;;;4972367;28;20522;-84
2022/10/29 10:16:41;;;;;;;25.45;17.02;;;17.20;99.90;;;;;;4989912;28;20037;-84
2022/10/29 10:19:22;;;;;;;26.52;17.17;;;17.30;99.90;;;;;;4975388;28;20034;-85
2022/10/29 10:21:57;;;;;;;24.98;17.85;;;17.30;99.90;;;;;;5014654;28;20141;-85
2022/10/29 10:24:34;;;;;;;23.40;17.17;;;17.40;99.90;;;;;;5019655;28;20188;-85
2022/10/29 10:27:23;;;;;;;25.67;16.67;;;17.50;99.90;;;;;;5030625;28;20037;-85
2022/10/29 10:30:03;;;;;;;27.92;17.02;;;17.50;99.90;;;;;;5038003;28;20039;-85
2022/10/29 10:32:30;;;;;;;25.90;17.33;;;17.70;99.90;;;;;;5030620;28;20441;-85
2022/10/29 10:34:56;;;;;;;26.58;16.17;;;17.70;99.90;;;;;;5030049;28;20120;-85
2022/10/29 10:37:23;;;;;;;29.90;16.48;;;17.80;99.90;;;;;;5026540;28;20115;-85
2022/10/29 10:39:59;;;;;;;27.85;15.77;;;17.90;99.90;;;;;;5033369;28;20037;-85
2022/10/29 10:42:35;;;;;;;25.15;16.13;;;18.00;99.90;;;;;;5031905;28;20071;-85
2022/10/29 10:45:13;;;;;;;25.80;16.05;;;18.10;99.90;;;;;;5030688;28;20044;-85
2022/10/29 10:47:44;;;;;;;27.40;15.70;;;18.10;99.90;;;;;;5020645;28;20048;-85
2022/10/29 10:50:39;;;;;;;23.70;15.07;;;18.20;99.90;;;;;;5033345;28;20079;-85
2022/10/29 10:53:16;;;;;;;23.70;15.00;;;18.30;99.90;;;;;;4991088;28;20046;-85
2022/10/29 10:55:49;;;;;;;22.50;14.30;;;18.40;99.90;;;;;;4976032;28;20116;-85
2022/10/29 10:58:24;;;;;;;20.92;13.98;;;18.50;99.90;;;;;;4991190;28;20057;-85
2022/10/29 11:00:54;;;;;;;26.33;15.18;;;18.60;99.90;;;;;;4991096;28;20184;-85
2022/10/29 11:03:34;;;;;;;24.30;15.32;;;18.70;99.90;;;;;;5008257;28;20053;-85
2022/10/29 11:06:00;;;;;;;25.73;15.15;;;18.70;99.90;;;;;;5007727;28;20506;-85
2022/10/29 11:08:36;;;;;;;22.02;15.13;;;18.70;99.90;;;;;;4992981;28;20555;-84
2022/10/29 11:11:09;;;;;;;23.17;15.82;;;18.80;99.90;;;;;;4988580;28;20058;-85
2022/10/29 11:13:37;;;;;;;27.17;15.77;;;18.80;99.90;;;;;;4991769;28;20535;-85
2022/10/29 11:16:44;;;;;;;22.48;15.20;;;18.80;99.90;;;;;;4975931;28;20057;-85
2022/10/29 11:19:26;;;;;;;26.80;16.15;;;18.80;99.90;;;;;;4960487;28;20500;-85
2022/10/29 11:22:05;;;;;;;25.77;16.77;;;18.80;99.90;;;;;;4976818;28;20034;-85
2022/10/29 11:24:54;;;;;;;23.38;16.45;;;18.80;99.90;;;;;;4991459;28;20085;-85
2022/10/29 11:27:31;;;;;;;24.02;15.52;;;18.90;99.90;;;;;;4991305;28;20070;-85
2022/10/29 11:30:04;;;;;;;23.35;15.60;;;18.90;99.90;;;;;;5016723;28;20085;-85
2022/10/29 11:32:49;;;;;;;23.42;16.17;;;18.90;99.90;;;;;;5033202;28;20068;-84
2022/10/29 11:35:17;;;;;;;24.15;15.45;;;18.90;99.90;;;;;;5048639;28;20045;-85
2022/10/29 11:37:51;;;;;;;25.10;15.60;;;18.90;99.90;;;;;;5048403;28;20029;-85
2022/10/29 11:40:22;;;;;;;23.25;15.25;;;19.00;99.90;;;;;;5047971;28;20041;-85
2022/10/29 11:42:48;;;;;;;23.65;15.23;;;19.00;99.90;;;;;;5032440;28;20044;-85
2022/10/29 11:45:21;;;;;;;23.98;16.17;;;19.00;99.90;;;;;;5048712;28;20037;-85
2022/10/29 11:48:17;;;;;;;28.25;16.00;;;19.00;99.90;;;;;;5049540;28;20037;-85
2022/10/29 11:50:53;;;;;;;23.42;16.15;;;19.10;99.90;;;;;;5047968;28;20033;-85
2022/10/29 11:53:45;;;;;;;26.15;16.85;;;19.10;99.90;;;;;;5031399;28;20094;-85
2022/10/29 11:56:27;;;;;;;24.40;16.05;;;19.20;99.90;;;;;;5030879;28;20068;-85
2022/10/29 11:59:11;;;;;;;24.63;17.10;;;19.30;99.90;;;;;;5049576;28;20037;-85
2022/10/29 12:01:43;;;;;;;26.48;16.85;;;19.50;99.90;;;;;;5032239;28;20044;-85
2022/10/29 12:04:29;;;;;;;24.77;16.60;;;19.70;99.90;;;;;;5048949;28;20044;-85
2022/10/29 12:07:09;;;;;;;23.45;15.48;;;19.80;99.90;;;;;;5032864;28;20139;-85
2022/10/29 12:10:03;;;;;;;27.33;16.85;;;19.90;99.90;;;;;;5048599;28;20045;-85
2022/10/29 12:12:40;;;;;;;24.33;15.25;;;19.90;99.90;;;;;;5049748;28;20040;-84
2022/10/29 12:15:43;;;;;;;22.92;16.45;;;20.00;99.90;;;;;;5031584;28;20037;-85
2022/10/29 12:18:15;;;;;;;24.98;16.55;;;20.30;99.90;;;;;;5049494;28;20052;-85
2022/10/29 12:20:47;;;;;;;29.00;16.27;;;20.60;99.90;;;;;;5048155;28;20037;-85
2022/10/29 12:23:36;;;;;;;28.58;16.55;;;20.80;99.90;;;;;;5051726;28;20040;-85
2022/10/29 12:26:09;;;;;;;25.23;15.43;;;21.00;99.90;;;;;;5049518;28;20124;-85
2022/10/29 12:29:01;;;;;;;24.63;15.77;;;21.40;99.90;;;;;;5051909;28;20048;-85
2022/10/29 12:31:34;;;;;;;25.27;15.77;;;21.80;99.90;;;;;;5039245;28;20040;-85
2022/10/29 12:34:06;;;;;;;28.42;15.73;;;21.80;99.90;;;;;;5038298;28;20513;-85
2022/10/29 12:37:05;;;;;;;21.40;14.40;;;21.70;99.90;;;;;;5038100;28;20505;-85
2022/10/29 12:39:35;;;;;;;23.00;15.20;;;21.60;99.90;;;;;;5040438;28;20041;-85
2022/10/29 12:42:10;;;;;;;24.40;13.98;;;21.40;99.90;;;;;;5048279;28;20033;-85
2022/10/29 12:44:40;;;;;;;23.67;15.05;;;21.30;99.90;;;;;;5038194;28;20056;-85
2022/10/29 12:47:09;;;;;;;24.02;14.70;;;21.20;99.90;;;;;;5037338;28;20387;-85
2022/10/29 12:50:02;;;;;;;25.13;15.77;;;21.10;99.90;;;;;;5028831;28;20037;-84
2022/10/29 12:52:40;;;;;;;24.30;14.98;;;21.10;99.90;;;;;;5027110;28;20045;-85
2022/10/29 12:55:09;;;;;;;22.48;15.35;;;21.00;99.90;;;;;;5031594;28;20045;-85